Time;durP1;ratioP1;P1;durP2;ratioP2;P2;SDS_P1;SDS_P2;PMS_P1;PMS_P2;Temp;Humidity;BMP_temperature;BMP_pressure;BME280_temperature;BME280_humidity;BME280_pressure;Samples;Min_cycle;Max_cycle;Signal;HPM_P1;HPM_P2
2023/03/03 00:00:22;;;;;;;61.63;19.25;;;;;;;-2.58;100.00;95541.28;5020525;28;20390;-72
2023/03/03 00:03:11;;;;;;;63.95;18.25;;;;;;;-2.64;100.00;95543.63;5004538;28;20454;-72
2023/03/03 00:05:38;;;;;;;64.38;21.35;;;;;;;-2.60;100.00;95538.91;5011360;28;20049;-72
2023/03/03 00:08:03;;;;;;;58.60;18.25;;;;;;;-2.61;100.00;95543.25;5010455;28;20045;-72
2023/03/03 00:10:29;;;;;;;64.00;18.77;;;;;;;-2.63;100.00;95545.22;5010832;28;20069;-72
2023/03/03 00:12:55;;;;;;;54.17;18.20;;;;;;;-2.56;100.00;95539.31;5002137;28;20034;-72
2023/03/03 00:15:24;;;;;;;62.85;19.30;;;;;;;-2.52;100.00;95543.13;5010776;28;20034;-72
2023/03/03 00:17:50;;;;;;;68.45;18.75;;;;;;;-2.57;100.00;95542.88;5017675;28;20116;-72
2023/03/03 00:20:32;;;;;;;57.35;19.58;;;;;;;-2.62;100.00;95540.84;5000898;28;20042;-72
2023/03/03 00:23:23;;;;;;;67.03;19.77;;;;;;;-2.56;100.00;95545.25;5011285;28;20034;-72
2023/03/03 00:25:51;;;;;;;49.85;17.63;;;;;;;-2.61;100.00;95543.25;5007448;28;20057;-71
2023/03/03 00:28:24;;;;;;;48.63;17.23;;;;;;;-2.63;100.00;95540.06;5011481;28;20136;-72
2023/03/03 00:30:55;;;;;;;69.22;18.48;;;;;;;-2.70;100.00;95535.81;5008856;28;20082;-72
2023/03/03 00:33:33;;;;;;;55.08;18.33;;;;;;;-2.76;100.00;95539.16;5003331;28;20134;-72
2023/03/03 00:36:13;;;;;;;55.00;18.95;;;;;;;-2.83;100.00;95528.78;5010564;28;20069;-72
2023/03/03 00:38:39;;;;;;;59.60;19.25;;;;;;;-2.76;100.00;95532.22;5009498;28;20446;-72
2023/03/03 00:41:18;;;;;;;64.22;19.80;;;;;;;-2.71;100.00;95537.63;5002951;28;20053;-73
2023/03/03 00:43:44;;;;;;;59.40;19.02;;;;;;;-2.68;100.00;95542.41;5008770;28;20042;-72
2023/03/03 00:46:18;;;;;;;59.47;18.73;;;;;;;-2.71;100.00;95545.34;5010225;28;20049;-72
2023/03/03 00:48:45;;;;;;;61.88;18.95;;;;;;;-2.72;100.00;95548.91;5009389;28;20046;-72
2023/03/03 00:51:23;;;;;;;60.28;18.00;;;;;;;-2.78;100.00;95547.06;5007681;28;20107;-72
2023/03/03 00:53:49;;;;;;;58.33;17.95;;;;;;;-2.85;100.00;95546.22;5012051;28;20053;-72
2023/03/03 00:56:15;;;;;;;56.35;18.98;;;;;;;-2.89;100.00;95550.13;5009930;28;20045;-72
2023/03/03 00:58:43;;;;;;;54.88;18.17;;;;;;;-2.93;100.00;95546.31;5007388;28;20042;-72
2023/03/03 01:01:08;;;;;;;57.70;18.52;;;;;;;-2.92;100.00;95545.34;5005679;28;20046;-72
2023/03/03 01:03:34;;;;;;;60.65;18.17;;;;;;;-2.92;100.00;95545.34;5007450;28;20414;-71
2023/03/03 01:05:59;;;;;;;56.67;18.85;;;;;;;-2.91;100.00;95547.72;5010037;28;20045;-72
2023/03/03 01:08:25;;;;;;;53.38;18.08;;;;;;;-2.87;100.00;95548.19;5010246;28;20038;-72
2023/03/03 01:10:56;;;;;;;64.28;19.50;;;;;;;-2.90;100.00;95548.53;5008773;28;20045;-72
2023/03/03 01:13:26;;;;;;;55.13;18.35;;;;;;;-2.87;100.00;95553.34;5006697;28;20042;-71
2023/03/03 01:15:51;;;;;;;60.08;19.88;;;;;;;-2.97;100.00;95544.13;5009576;28;20092;-72
2023/03/03 01:18:17;;;;;;;62.30;18.95;;;;;;;-2.96;100.00;95556.00;5013264;28;20436;-72
2023/03/03 01:20:43;;;;;;;57.72;17.48;;;;;;;-2.99;100.00;95546.09;5008458;28;20065;-72
2023/03/03 01:23:08;;;;;;;55.22;18.42;;;;;;;-3.02;100.00;95549.00;5009457;28;20543;-72
2023/03/03 01:25:34;;;;;;;61.35;19.55;;;;;;;-3.01;100.00;95542.88;5008551;28;20459;-72
2023/03/03 01:28:00;;;;;;;60.40;18.90;;;;;;;-3.05;100.00;95540.88;5010232;28;20052;-71
2023/03/03 01:30:26;;;;;;;54.35;16.60;;;;;;;-3.11;100.00;95537.25;5009310;28;20046;-72
2023/03/03 01:32:52;;;;;;;57.67;16.67;;;;;;;-3.04;100.00;95538.09;5004537;28;20414;-72
2023/03/03 01:35:17;;;;;;;56.30;17.70;;;;;;;-2.99;100.00;95535.78;5008350;28;20584;-72
2023/03/03 01:37:43;;;;;;;51.03;15.00;;;;;;;-3.06;100.00;95537.50;5008430;28;20052;-71
2023/03/03 01:40:22;;;;;;;59.90;18.27;;;;;;;-3.08;100.00;95542.03;5007985;28;20057;-72
2023/03/03 01:42:47;;;;;;;55.03;16.17;;;;;;;-3.07;100.00;95528.19;5000971;28;20111;-72
2023/03/03 01:45:18;;;;;;;52.85;17.92;;;;;;;-3.15;100.00;95525.72;5014257;28;20692;-72
2023/03/03 01:47:58;;;;;;;55.63;17.67;;;;;;;-3.13;100.00;95529.69;5000031;28;20061;-71
2023/03/03 01:50:30;;;;;;;55.75;17.77;;;;;;;-3.10;100.00;95528.53;5001668;28;20057;-71
2023/03/03 01:52:58;;;;;;;49.80;16.85;;;;;;;-3.15;100.00;95521.38;5008227;28;20571;-71
2023/03/03 01:55:32;;;;;;;50.47;16.42;;;;;;;-3.21;100.00;95526.44;5009825;28;20038;-72
2023/03/03 01:58:05;;;;;;;50.55;15.27;;;;;;;-3.22;100.00;95519.69;5008272;28;20048;-71
2023/03/03 02:00:33;;;;;;;53.80;17.88;;;;;;;-3.16;100.00;95524.91;5008652;28;20042;-71
2023/03/03 02:02:58;;;;;;;59.65;16.65;;;;;;;-2.99;100.00;95525.50;5007457;28;20502;-71
2023/03/03 02:05:25;;;;;;;47.33;16.55;;;;;;;-3.12;100.00;95515.03;5007418;28;20049;-71
2023/03/03 02:07:51;;;;;;;58.35;17.25;;;;;;;-3.24;100.00;95519.09;5008889;28;20080;-71
2023/03/03 02:10:20;;;;;;;53.03;17.63;;;;;;;-3.29;100.00;95518.84;5013425;28;20112;-71
2023/03/03 02:12:50;;;;;;;54.50;16.55;;;;;;;-3.33;100.00;95519.19;5012322;28;20037;-71
2023/03/03 02:15:18;;;;;;;55.70;17.10;;;;;;;-3.26;100.00;95528.75;5016393;28;20046;-72
2023/03/03 02:17:45;;;;;;;59.75;17.00;;;;;;;-3.30;100.00;95518.03;5005937;28;20446;-71
2023/03/03 02:20:20;;;;;;;52.33;16.85;;;;;;;-3.34;100.00;95522.75;5021842;28;20100;-71
2023/03/03 02:22:56;;;;;;;56.30;17.42;;;;;;;-3.29;100.00;95516.25;5006392;28;20537;-71
2023/03/03 02:25:32;;;;;;;54.53;17.45;;;;;;;-3.28;100.00;95520.44;5013573;28;20038;-71
2023/03/03 02:27:58;;;;;;;50.30;15.35;;;;;;;-3.31;100.00;95512.06;5017607;28;20042;-71
2023/03/03 02:30:24;;;;;;;43.17;15.77;;;;;;;-3.32;100.00;95525.13;5014139;28;20062;-71
2023/03/03 02:32:50;;;;;;;48.88;16.55;;;;;;;-3.39;100.00;95519.94;5013084;28;20046;-71
2023/03/03 02:35:29;;;;;;;50.50;16.42;;;;;;;-3.42;100.00;95530.59;5015116;28;20062;-71
2023/03/03 02:38:03;;;;;;;46.92;15.60;;;;;;;-3.41;100.00;95519.31;5016539;28;20065;-71
2023/03/03 02:40:35;;;;;;;57.45;15.68;;;;;;;-3.32;100.00;95530.28;5016028;28;20497;-72
2023/03/03 02:43:04;;;;;;;47.33;16.42;;;;;;;-3.45;100.00;95525.78;5012646;28;20112;-71
2023/03/03 02:45:29;;;;;;;53.03;17.15;;;;;;;-3.38;100.00;95531.78;5014405;28;20038;-71
2023/03/03 02:47:55;;;;;;;57.83;15.75;;;;;;;-3.44;100.00;95531.75;5011140;28;20572;-71
2023/03/03 02:50:20;;;;;;;48.67;15.20;;;;;;;-3.43;100.00;95529.00;5014816;28;20125;-72
2023/03/03 02:52:46;;;;;;;47.90;15.60;;;;;;;-3.48;100.00;95526.16;5015974;28;20498;-72
2023/03/03 02:55:12;;;;;;;46.25;15.43;;;;;;;-3.52;100.00;95527.47;5014804;28;20041;-71
2023/03/03 02:57:37;;;;;;;55.15;17.10;;;;;;;-3.55;100.00;95525.28;5015361;28;20034;-71
2023/03/03 03:00:04;;;;;;;46.83;15.65;;;;;;;-3.57;100.00;95516.94;5014831;28;20132;-71
2023/03/03 03:02:29;;;;;;;52.47;16.08;;;;;;;-3.57;100.00;95522.09;5014332;28;20044;-71
2023/03/03 03:04:55;;;;;;;58.35;18.20;;;;;;;-3.52;100.00;95520.59;5013039;28;20037;-71
2023/03/03 03:07:20;;;;;;;49.35;16.55;;;;;;;-3.44;100.00;95522.25;5014624;28;20069;-71
2023/03/03 03:09:46;;;;;;;54.63;17.48;;;;;;;-3.43;100.00;95513.56;5015832;28;20510;-71
2023/03/03 03:12:12;;;;;;;51.70;16.98;;;;;;;-3.36;100.00;95519.56;5015053;28;20113;-71
2023/03/03 03:14:37;;;;;;;56.92;17.27;;;;;;;-3.35;100.00;95516.03;5015656;28;20049;-71
2023/03/03 03:17:03;;;;;;;51.95;16.27;;;;;;;-3.32;100.00;95525.13;5012001;28;20061;-72
2023/03/03 03:19:29;;;;;;;48.58;14.60;;;;;;;-3.35;100.00;95517.78;5013423;28;20034;-71
2023/03/03 03:21:54;;;;;;;58.97;17.52;;;;;;;-3.39;100.00;95514.78;5010950;28;20153;-72
2023/03/03 03:24:20;;;;;;;46.80;15.65;;;;;;;-3.38;100.00;95510.44;5011098;28;20096;-72
2023/03/03 03:26:45;;;;;;;50.03;16.17;;;;;;;-3.28;100.00;95510.94;5009884;28;20045;-72
2023/03/03 03:29:11;;;;;;;53.00;16.33;;;;;;;-3.15;100.00;95512.84;5013127;28;20496;-72
2023/03/03 03:31:37;;;;;;;46.25;16.25;;;;;;;-3.03;100.00;95524.25;5011266;28;20417;-72
2023/03/03 03:34:02;;;;;;;54.85;16.30;;;;;;;-2.96;100.00;95530.25;5004607;28;20041;-72
2023/03/03 03:36:28;;;;;;;54.05;17.77;;;;;;;-2.96;100.00;95522.53;5012554;28;20493;-72
2023/03/03 03:38:54;;;;;;;53.22;16.67;;;;;;;-2.79;100.00;95530.00;5014391;28;20413;-72
2023/03/03 03:41:19;;;;;;;56.92;17.25;;;;;;;-2.81;100.00;95527.63;5009965;28;20064;-72
2023/03/03 03:43:45;;;;;;;48.75;17.33;;;;;;;-2.73;100.00;95523.31;5011055;28;20049;-71
2023/03/03 03:46:10;;;;;;;56.00;16.75;;;;;;;-2.67;100.00;95533.69;5014112;28;20049;-71
2023/03/03 03:48:36;;;;;;;53.95;17.75;;;;;;;-2.62;100.00;95526.19;5008122;28;20045;-72
2023/03/03 03:51:02;;;;;;;46.08;17.45;;;;;;;-2.57;100.00;95522.25;5006176;28;20112;-72
2023/03/03 03:53:27;;;;;;;52.63;16.63;;;;;;;-2.51;100.00;95521.53;5011949;28;20042;-71
2023/03/03 03:55:53;;;;;;;54.10;16.58;;;;;;;-2.47;100.00;95522.72;5012668;28;20049;-72
2023/03/03 03:58:19;;;;;;;54.53;17.52;;;;;;;-2.39;100.00;95525.19;5007324;28;20560;-72
2023/03/03 04:00:45;;;;;;;60.33;18.17;;;;;;;-2.38;100.00;95526.78;5010399;28;20033;-72
2023/03/03 04:03:13;;;;;;;59.35;19.38;;;;;;;-2.32;100.00;95525.22;5014448;28;20042;-72
2023/03/03 04:05:38;;;;;;;67.10;18.48;;;;;;;-2.24;100.00;95513.97;5011279;28;20510;-72
2023/03/03 04:08:04;;;;;;;61.30;19.15;;;;;;;-2.19;100.00;95515.00;5012387;28;20042;-72
2023/03/03 04:10:30;;;;;;;57.38;16.90;;;;;;;-2.14;100.00;95517.00;5010869;28;20473;-72
2023/03/03 04:12:55;;;;;;;48.28;16.13;;;;;;;-2.10;100.00;95518.22;5009903;28;20042;-72
2023/03/03 04:15:21;;;;;;;48.47;17.15;;;;;;;-2.02;100.00;95522.44;5011837;28;20053;-72
2023/03/03 04:17:47;;;;;;;52.05;16.88;;;;;;;-2.06;100.00;95523.81;5010786;28;20121;-72
2023/03/03 04:20:14;;;;;;;45.88;15.43;;;;;;;-2.03;100.00;95521.63;5011058;28;20047;-71
2023/03/03 04:22:40;;;;;;;54.05;16.58;;;;;;;-1.97;100.00;95520.09;5010438;28;20042;-72
2023/03/03 04:25:06;;;;;;;53.60;16.85;;;;;;;-2.00;100.00;95523.84;5011191;28;20092;-72
2023/03/03 04:27:33;;;;;;;54.45;17.15;;;;;;;-1.98;100.00;95527.03;5010841;28;20502;-72
2023/03/03 04:29:59;;;;;;;52.00;17.52;;;;;;;-1.98;100.00;95519.28;5010940;28;20053;-72
2023/03/03 04:32:25;;;;;;;57.35;18.70;;;;;;;-1.98;100.00;95527.03;5010004;28;20030;-72
2023/03/03 04:34:51;;;;;;;53.63;18.40;;;;;;;-1.89;100.00;95527.69;5005298;28;20053;-72
2023/03/03 04:37:16;;;;;;;51.30;16.95;;;;;;;-1.89;100.00;95529.47;5020429;28;20042;-72
2023/03/03 04:39:42;;;;;;;51.28;16.13;;;;;;;-1.87;100.00;95532.63;5010891;28;20042;-72
2023/03/03 04:42:08;;;;;;;58.50;18.08;;;;;;;-1.85;100.00;95530.66;5008747;28;20772;-72
2023/03/03 04:44:33;;;;;;;50.85;17.20;;;;;;;-1.82;100.00;95530.28;5010909;28;20045;-72
2023/03/03 04:46:59;;;;;;;52.13;18.05;;;;;;;-1.82;100.00;95535.47;5013930;28;20069;-72
2023/03/03 04:49:24;;;;;;;53.22;17.92;;;;;;;-1.82;100.00;95528.50;5012214;28;20034;-72
2023/03/03 04:51:50;;;;;;;56.10;17.63;;;;;;;-1.78;100.00;95521.16;5002925;28;20690;-72
2023/03/03 04:54:15;;;;;;;49.42;17.05;;;;;;;-1.72;100.00;95528.16;5011293;28;20057;-72
2023/03/03 04:56:41;;;;;;;52.30;17.05;;;;;;;-1.69;100.00;95525.19;5011243;28;20080;-72
2023/03/03 04:59:06;;;;;;;52.95;18.13;;;;;;;-1.67;100.00;95523.19;5009763;28;20048;-72
2023/03/03 05:01:32;;;;;;;60.80;19.75;;;;;;;-1.62;100.00;95526.00;5009058;28;20485;-72
2023/03/03 05:03:57;;;;;;;59.95;18.13;;;;;;;-1.65;100.00;95530.75;5009399;28;20045;-72
2023/03/03 05:06:23;;;;;;;44.72;16.23;;;;;;;-1.67;100.00;95525.78;5009136;28;20516;-72
2023/03/03 05:08:48;;;;;;;46.05;16.05;;;;;;;-1.68;100.00;95516.47;5009519;28;20053;-72
2023/03/03 05:11:14;;;;;;;50.88;15.98;;;;;;;-1.60;100.00;95524.03;5012515;28;20045;-72
2023/03/03 05:13:40;;;;;;;50.75;15.77;;;;;;;-1.60;100.00;95529.19;5009628;28;20273;-71
2023/03/03 05:16:06;;;;;;;51.50;17.52;;;;;;;-1.61;100.00;95532.78;5009501;28;20528;-72
2023/03/03 05:18:31;;;;;;;57.08;18.65;;;;;;;-1.60;100.00;95524.03;5015231;28;20527;-71
2023/03/03 05:20:57;;;;;;;61.45;19.40;;;;;;;-1.59;100.00;95520.47;5009217;28;20120;-72
2023/03/03 05:23:23;;;;;;;51.47;18.27;;;;;;;-1.55;100.00;95522.66;5010175;28;20053;-71
2023/03/03 05:25:50;;;;;;;58.88;19.05;;;;;;;-1.50;100.00;95517.72;5009985;28;20038;-72
2023/03/03 05:28:16;;;;;;;58.88;19.10;;;;;;;-1.49;100.00;95524.50;5013540;28;20768;-72
2023/03/03 05:30:41;;;;;;;57.00;18.55;;;;;;;-1.46;100.00;95521.53;5005566;28;20041;-72
2023/03/03 05:33:07;;;;;;;62.72;19.35;;;;;;;-1.43;100.00;95524.50;5010717;28;20083;-71
2023/03/03 05:35:33;;;;;;;59.08;18.38;;;;;;;-1.42;100.00;95522.72;5016927;28;20056;-72
2023/03/03 05:38:02;;;;;;;55.35;18.38;;;;;;;-1.41;100.00;95526.88;5011893;28;20421;-71
2023/03/03 05:40:27;;;;;;;58.13;19.88;;;;;;;-1.43;100.00;95518.56;5024143;28;20029;-71
2023/03/03 05:42:53;;;;;;;51.92;18.65;;;;;;;-1.36;100.00;95536.66;5028640;28;20044;-71
2023/03/03 05:45:20;;;;;;;63.33;19.60;;;;;;;-1.30;100.00;95544.41;5036557;28;20056;-71
2023/03/03 05:47:52;;;;;;;60.78;18.70;;;;;;;-1.29;100.00;95545.22;5035309;28;20030;-71
2023/03/03 05:50:22;;;;;;;56.15;18.60;;;;;;;-1.29;100.00;95540.84;5032444;28;20026;-71
2023/03/03 05:52:48;;;;;;;58.08;18.80;;;;;;;-1.26;100.00;95550.78;5012197;28;20030;-71
2023/03/03 05:55:14;;;;;;;57.08;19.13;;;;;;;-1.26;100.00;95548.19;5038801;28;20034;-72
2023/03/03 05:57:40;;;;;;;67.43;19.05;;;;;;;-1.25;100.00;95552.38;5034129;28;20156;-70
2023/03/03 06:00:07;;;;;;;55.40;18.42;;;;;;;-1.25;100.00;95552.38;5029115;28;20030;-71
2023/03/03 06:02:33;;;;;;;69.40;19.98;;;;;;;-1.23;100.00;95555.53;5029827;28;20478;-71
2023/03/03 06:04:59;;;;;;;61.22;19.63;;;;;;;-1.22;100.00;95556.38;5019292;28;20049;-72
2023/03/03 06:07:25;;;;;;;65.95;20.73;;;;;;;-1.16;100.00;95554.78;5009477;28;20068;-72
2023/03/03 06:09:50;;;;;;;73.72;22.88;;;;;;;-1.13;100.00;95556.97;5000475;28;20053;-72
2023/03/03 06:12:16;;;;;;;82.90;23.30;;;;;;;-1.09;100.00;95555.59;4998924;28;20116;-72
2023/03/03 06:14:41;;;;;;;71.57;22.00;;;;;;;-1.04;100.00;95553.22;5013555;28;20037;-72
2023/03/03 06:17:07;;;;;;;72.63;23.10;;;;;;;-1.00;100.00;95562.19;5020561;28;20046;-71
2023/03/03 06:19:32;;;;;;;76.38;21.58;;;;;;;-0.93;100.00;95565.56;5006984;28;20038;-72
2023/03/03 06:21:58;;;;;;;83.38;22.65;;;;;;;-0.88;100.00;95573.53;5008634;28;20034;-72
2023/03/03 06:24:25;;;;;;;67.55;21.50;;;;;;;-0.87;100.00;95580.28;5007932;28;20068;-74
2023/03/03 06:26:51;;;;;;;62.75;21.25;;;;;;;-0.84;100.00;95562.81;5014907;28;20096;-74
2023/03/03 06:29:17;;;;;;;87.40;24.92;;;;;;;-0.75;100.00;95577.13;5001302;28;20045;-73
2023/03/03 06:31:43;;;;;;;95.82;26.90;;;;;;;-0.64;100.00;95578.34;5005203;28;20509;-73
2023/03/03 06:34:09;;;;;;;94.55;27.77;;;;;;;-0.51;100.00;95593.09;5003055;28;20049;-73
2023/03/03 06:36:34;;;;;;;94.20;26.27;;;;;;;-0.44;100.00;95588.72;5013833;28;20100;-72
2023/03/03 06:39:00;;;;;;;82.93;25.75;;;;;;;-0.47;100.00;95589.13;5010263;28;20046;-73
2023/03/03 06:41:26;;;;;;;101.75;29.98;;;;;;;-0.27;100.00;95584.75;5005708;28;20045;-72
2023/03/03 06:43:51;;;;;;;106.82;29.88;;;;;;;-0.06;100.00;95581.16;5010914;28;21554;-72
2023/03/03 06:46:17;;;;;;;103.55;30.13;;;;;;;-0.01;100.00;95588.31;5009041;28;20053;-72
2023/03/03 06:48:42;;;;;;;113.32;28.77;;;;;;;-0.01;100.00;95588.31;5007182;28;20046;-72
2023/03/03 06:51:23;;;;;;;108.05;31.27;;;;;;;0.14;100.00;95586.31;5005450;28;20506;-74
2023/03/03 06:53:52;;;;;;;105.80;30.27;;;;;;;0.13;100.00;95583.91;5009688;28;20058;-75
2023/03/03 06:56:18;;;;;;;113.32;32.25;;;;;;;0.15;100.00;95587.88;5008394;28;20046;-74
2023/03/03 06:58:43;;;;;;;96.05;29.08;;;;;;;0.12;100.00;95588.28;5011921;28;20053;-75
2023/03/03 07:01:16;;;;;;;117.60;32.40;;;;;;;0.12;100.00;95598.66;5010788;28;20042;-75
2023/03/03 07:03:42;;;;;;;116.00;32.40;;;;;;;0.21;100.00;95601.03;5009708;28;20038;-73
2023/03/03 07:06:25;;;;;;;116.38;31.35;;;;;;;0.31;100.00;95591.06;5012216;28;21502;-72
2023/03/03 07:08:54;;;;;;;108.85;30.60;;;;;;;0.33;100.00;95595.03;5011264;28;20037;-72
2023/03/03 07:11:21;;;;;;;114.75;30.17;;;;;;;0.33;100.00;95599.41;5011481;28;20050;-74
2023/03/03 07:13:50;;;;;;;116.53;31.08;;;;;;;0.33;100.00;95604.56;5013418;28;20041;-74
2023/03/03 07:16:18;;;;;;;119.05;32.75;;;;;;;0.32;100.00;95608.19;5013898;28;20493;-74
2023/03/03 07:18:57;;;;;;;130.48;34.38;;;;;;;0.37;100.00;95600.59;5013055;28;20050;-74
2023/03/03 07:21:33;;;;;;;112.00;32.05;;;;;;;0.41;100.00;95601.78;5012458;28;20077;-74
2023/03/03 07:24:00;;;;;;;127.28;33.30;;;;;;;0.50;100.00;95604.94;5006988;28;20038;-73
2023/03/03 07:26:31;;;;;;;131.48;31.35;;;;;;;0.41;100.00;95612.13;5012334;28;20497;-72
2023/03/03 07:29:07;;;;;;;130.50;33.33;;;;;;;0.44;100.00;95611.72;5019186;28;20038;-72
2023/03/03 07:31:35;;;;;;;120.60;32.47;;;;;;;0.46;100.00;95620.09;5011177;28;20034;-72
2023/03/03 07:34:14;;;;;;;122.75;31.50;;;;;;;0.64;100.00;95626.44;5006370;28;20569;-72
2023/03/03 07:36:40;;;;;;;121.00;33.35;;;;;;;0.65;100.00;95622.84;5015675;28;20048;-71
2023/03/03 07:39:39;;;;;;;129.40;34.20;;;;;;;0.60;100.00;95625.25;5012436;28;20073;-70
2023/03/03 07:42:20;;;;;;;127.13;34.28;;;;;;;0.65;100.00;95628.81;5007360;28;20061;-71
2023/03/03 07:44:49;;;;;;;127.78;33.58;;;;;;;0.66;100.00;95632.19;5026075;28;20038;-71
2023/03/03 07:47:38;;;;;;;143.60;34.25;;;;;;;0.65;100.00;95633.22;5011956;28;20046;-71
2023/03/03 07:50:15;;;;;;;123.88;33.90;;;;;;;0.67;100.00;95636.38;4999003;28;20073;-71
2023/03/03 07:52:44;;;;;;;128.55;34.15;;;;;;;0.69;100.00;95634.41;5012161;28;20336;-72
2023/03/03 07:55:36;;;;;;;140.20;35.15;;;;;;;0.77;100.00;95643.72;5016623;28;20442;-71
2023/03/03 07:58:20;;;;;;;124.85;33.53;;;;;;;0.71;100.00;95634.97;5006813;28;20042;-71
2023/03/03 08:01:05;;;;;;;;;;;;;;;0.83;100.00;95641.13;4999367;28;20030;-71
2023/03/03 08:03:34;;;;;;;133.57;32.85;;;;;;;0.83;100.00;95645.50;5004646;28;19922;-71
2023/03/03 08:06:22;;;;;;;122.25;32.30;;;;;;;0.91;100.00;95641.91;5014031;28;20401;-71
2023/03/03 08:08:48;;;;;;;132.48;32.90;;;;;;;0.96;100.00;95647.25;5009965;28;20141;-71
2023/03/03 08:11:13;;;;;;;141.75;35.38;;;;;;;0.98;100.00;95647.88;5007018;28;20043;-71
2023/03/03 08:13:42;;;;;;;138.07;35.55;;;;;;;1.09;100.00;95644.59;5015778;28;20041;-71
2023/03/03 08:16:07;;;;;;;136.32;37.50;;;;;;;1.06;100.00;95649.41;5012417;28;20042;-71
2023/03/03 08:18:39;;;;;;;140.00;36.20;;;;;;;1.11;100.00;95655.56;5011068;28;20042;-71
2023/03/03 08:21:11;;;;;;;154.23;36.90;;;;;;;1.26;100.00;95649.34;5012702;28;20049;-71
2023/03/03 08:23:37;;;;;;;139.50;37.10;;;;;;;1.26;100.00;95651.91;5011977;28;20406;-71
2023/03/03 08:26:03;;;;;;;134.80;34.85;;;;;;;1.27;100.00;95641.34;5011328;28;20076;-72
2023/03/03 08:28:28;;;;;;;143.00;36.97;;;;;;;1.45;100.00;95637.25;5012823;28;20429;-71
2023/03/03 08:30:54;;;;;;;140.57;36.85;;;;;;;1.35;100.00;95632.53;5012929;28;20062;-72
2023/03/03 08:33:19;;;;;;;141.07;35.38;;;;;;;1.42;100.00;95638.47;5005345;28;20690;-71
2023/03/03 08:35:46;;;;;;;148.90;36.15;;;;;;;1.62;100.00;95645.34;5010675;28;20458;-72
2023/03/03 08:38:14;;;;;;;128.13;35.80;;;;;;;1.46;100.00;95642.22;5011963;28;20042;-71
2023/03/03 08:40:40;;;;;;;146.88;37.97;;;;;;;1.45;100.00;95638.06;5017706;28;20042;-71
2023/03/03 08:43:06;;;;;;;149.40;38.63;;;;;;;1.52;100.00;95644.00;5011779;28;20441;-72
2023/03/03 08:45:32;;;;;;;142.10;35.40;;;;;;;1.76;100.00;95649.44;5011890;28;20060;-72
2023/03/03 08:48:00;;;;;;;133.40;37.42;;;;;;;1.80;100.00;95655.03;5014176;28;20037;-72
2023/03/03 08:50:27;;;;;;;149.80;37.30;;;;;;;1.68;100.00;95657.47;5009895;28;20046;-72
2023/03/03 08:52:53;;;;;;;148.40;36.25;;;;;;;1.85;100.00;95657.75;5011894;28;20116;-72
2023/03/03 08:55:19;;;;;;;154.48;38.03;;;;;;;1.88;100.00;95652.97;5011987;28;20053;-71
2023/03/03 08:57:44;;;;;;;148.82;37.47;;;;;;;2.01;100.00;95661.66;5006788;28;20046;-72
2023/03/03 09:00:14;;;;;;;141.43;37.88;;;;;;;2.18;100.00;95661.91;5011667;28;20572;-72
2023/03/03 09:02:40;;;;;;;134.20;36.30;;;;;;;2.10;100.00;95665.59;5009933;28;20045;-71
2023/03/03 09:05:06;;;;;;;136.55;36.92;;;;;;;2.12;100.00;95663.56;5015000;28;20121;-72
2023/03/03 09:07:33;;;;;;;137.88;36.03;;;;;;;2.23;100.00;95675.84;5010541;28;20042;-72
2023/03/03 09:09:58;;;;;;;134.38;37.03;;;;;;;2.62;100.00;95672.34;5010702;28;20048;-72
2023/03/03 09:12:29;;;;;;;128.70;36.30;;;;;;;2.71;100.00;95665.84;5009880;28;20065;-72
2023/03/03 09:14:58;;;;;;;133.18;37.17;;;;;;;2.49;100.00;95673.25;5019733;28;20042;-72
2023/03/03 09:17:31;;;;;;;122.68;34.88;;;;;;;2.62;100.00;95674.94;5010157;28;20049;-71
2023/03/03 09:20:34;;;;;;;145.13;38.42;;;;;;;2.51;100.00;95677.22;5012368;28;20049;-72
2023/03/03 09:23:34;;;;;;;135.07;36.60;;;;;;;2.60;100.00;95670.75;5004863;28;20038;-71
2023/03/03 09:26:25;;;;;;;142.20;37.53;;;;;;;2.47;100.00;95670.88;5009630;28;20042;-71
2023/03/03 09:29:06;;;;;;;131.55;36.70;;;;;;;2.73;100.00;95669.00;5005700;28;20068;-72
2023/03/03 09:31:41;;;;;;;148.77;37.30;;;;;;;2.68;100.00;95661.88;5011185;28;20149;-72
2023/03/03 09:34:35;;;;;;;135.98;36.53;;;;;;;2.67;100.00;95669.88;5004642;28;20049;-72
2023/03/03 09:37:20;;;;;;;165.50;35.42;;;;;;;2.81;100.00;95681.72;5011039;28;20481;-72
2023/03/03 09:39:49;;;;;;;137.25;36.67;;;;;;;3.02;100.00;95679.72;5000771;28;20048;-72
2023/03/03 09:42:27;;;;;;;153.95;36.08;;;;;;;3.28;100.00;95682.00;5008288;28;20571;-72
2023/03/03 09:45:05;;;;;;;145.00;38.78;;;;;;;3.32;100.00;95686.78;5006984;28;20050;-72
2023/03/03 09:48:03;;;;;;;148.88;37.28;;;;;;;3.26;100.00;95684.06;5009468;28;20129;-71
2023/03/03 09:50:29;;;;;;;132.93;36.85;;;;;;;2.98;100.00;95687.16;5010367;28;20458;-71
2023/03/03 09:53:31;;;;;;;131.70;36.85;;;;;;;3.14;100.00;95690.97;5009015;28;20069;-71
2023/03/03 09:56:06;;;;;;;134.65;36.53;;;;;;;3.47;100.00;95700.19;5005503;28;20041;-72
2023/03/03 09:58:36;;;;;;;140.50;38.78;;;;;;;3.08;100.00;95707.47;5025018;28;20049;-72
2023/03/03 10:01:49;;;;;;;141.40;38.15;;;;;;;3.64;100.00;95700.41;5009842;28;20061;-72
2023/03/03 10:04:28;;;;;;;140.02;35.15;;;;;;;3.48;100.00;95696.59;4997014;28;20061;-72
2023/03/03 10:07:17;;;;;;;139.18;40.88;;;;;;;3.17;100.00;95700.94;5016464;28;20048;-72
2023/03/03 10:09:57;;;;;;;140.60;38.85;;;;;;;3.06;100.00;95705.09;5009959;28;20132;-72
2023/03/03 10:12:35;;;;;;;137.38;39.97;;;;;;;3.16;100.00;95704.56;5013393;28;20050;-72
2023/03/03 10:15:27;;;;;;;132.75;38.83;;;;;;;3.42;100.00;95692.25;5010552;28;20042;-72
2023/03/03 10:18:03;;;;;;;142.27;36.58;;;;;;;3.50;100.00;95704.97;5005684;28;20521;-72
2023/03/03 10:20:46;;;;;;;144.07;38.33;;;;;;;3.46;100.00;95709.00;5007177;28;20044;-72
2023/03/03 10:23:55;;;;;;;150.93;38.25;;;;;;;3.58;100.00;95702.06;5015724;28;20034;-72
2023/03/03 10:26:56;;;;;;;144.60;37.03;;;;;;;3.60;100.00;95707.03;5005970;28;20045;-72
2023/03/03 10:29:37;;;;;;;137.65;36.78;;;;;;;3.40;100.00;95715.88;5007264;28;20042;-72
2023/03/03 10:32:37;;;;;;;129.55;37.20;;;;;;;3.40;100.00;95709.91;5010860;28;20061;-72
2023/03/03 10:35:23;;;;;;;137.20;38.15;;;;;;;3.29;100.00;95720.03;5014353;28;20096;-72
2023/03/03 10:37:51;;;;;;;128.68;35.85;;;;;;;3.64;100.00;95718.59;5007616;28;20103;-72
2023/03/03 10:40:37;;;;;;;129.10;37.50;;;;;;;3.70;100.00;95719.53;5015292;28;20049;-71
2023/03/03 10:43:15;;;;;;;126.90;39.10;;;;;;;3.69;100.00;95717.94;5009309;28;20046;-71
2023/03/03 10:45:49;;;;;;;136.57;35.42;;;;;;;3.94;100.00;95707.41;5017128;28;20034;-72
2023/03/03 10:48:24;;;;;;;140.90;36.92;;;;;;;3.99;100.00;95704.91;5012031;28;20042;-72
2023/03/03 10:50:59;;;;;;;131.25;36.00;;;;;;;4.15;100.00;95706.09;5009543;28;20042;-72
2023/03/03 10:53:31;;;;;;;127.05;37.55;;;;;;;4.11;100.00;95704.97;5008642;28;20616;-72
2023/03/03 10:56:00;;;;;;;133.13;38.92;;;;;;;4.33;100.00;95706.00;5013720;28;20045;-72
2023/03/03 10:58:45;;;;;;;136.32;37.03;;;;;;;4.39;100.00;95691.28;5012547;28;20042;-72
2023/03/03 11:01:25;;;;;;;120.93;34.83;;;;;;;4.46;100.00;95697.19;5015081;28;20410;-72
2023/03/03 11:04:10;;;;;;;132.18;38.38;;;;;;;4.45;100.00;95690.41;5018758;28;20236;-72
2023/03/03 11:06:36;;;;;;;128.88;37.53;;;;;;;4.07;100.00;95698.59;5013541;28;20046;-71
2023/03/03 11:09:05;;;;;;;131.88;37.65;;;;;;;4.04;100.00;95701.63;5015003;28;20046;-71
2023/03/03 11:11:40;;;;;;;117.10;35.17;;;;;;;3.86;100.00;95711.09;5012990;28;20054;-71
2023/03/03 11:14:30;;;;;;;128.60;37.45;;;;;;;4.06;100.00;95718.63;5016267;28;20608;-72
2023/03/03 11:17:14;;;;;;;133.30;39.60;;;;;;;4.77;100.00;95712.72;4995391;28;20056;-72
2023/03/03 11:20:09;;;;;;;122.18;35.78;;;;;;;4.54;100.00;95718.72;5015399;28;20113;-72
2023/03/03 11:22:50;;;;;;;;;;;;;;;4.61;100.00;95709.78;5013216;28;20112;-72
2023/03/03 11:25:37;;;;;;;97.93;31.58;;;;;;;4.28;100.00;95711.13;5008770;28;19921;-72